createdAt,value
2022-08-22T00:02:57.280Z,999.51
2022-08-22T00:03:00.667Z,999.51
2022-08-22T00:03:04.652Z,999.46
2022-08-22T00:03:08.326Z,999.51
2022-08-22T00:03:10.386Z,999.51
2022-08-22T00:07:55.351Z,999.56
2022-08-22T00:12:54.208Z,999.54
2022-08-22T00:17:55.261Z,999.56
2022-08-22T00:22:54.107Z,999.60
2022-08-22T00:27:54.090Z,999.58
2022-08-22T00:32:54.001Z,999.59
2022-08-22T00:37:53.961Z,999.61
2022-08-22T00:42:53.980Z,999.60
2022-08-22T00:47:53.841Z,999.57
2022-08-22T00:52:53.836Z,999.52
2022-08-22T00:57:53.717Z,999.52
2022-08-22T01:02:53.678Z,999.55
2022-08-22T01:07:53.622Z,999.60
2022-08-22T01:12:53.571Z,999.56
2022-08-22T01:17:53.506Z,999.56
2022-08-22T01:22:53.445Z,999.55
2022-08-22T01:27:53.394Z,999.55
2022-08-22T01:32:56.925Z,999.54
2022-08-22T01:37:53.378Z,999.50
2022-08-22T01:42:53.248Z,999.44
2022-08-22T01:47:54.262Z,999.47
2022-08-22T01:52:53.124Z,999.47
2022-08-22T01:57:53.192Z,999.44
2022-08-22T02:02:53.185Z,999.47
2022-08-22T02:07:52.991Z,999.46
2022-08-22T02:12:53.063Z,999.43
2022-08-22T02:17:53.071Z,999.44
2022-08-22T02:22:52.844Z,999.51
2022-08-22T02:27:52.782Z,999.50
2022-08-22T02:32:52.706Z,999.42
2022-08-22T02:37:52.679Z,999.44
2022-08-22T02:42:52.581Z,999.34
2022-08-22T02:47:52.583Z,999.36
2022-08-22T02:52:52.470Z,999.33
2022-08-22T02:57:52.476Z,999.29
2022-08-22T03:02:52.476Z,999.27
2022-08-22T03:07:52.337Z,999.26
2022-08-22T03:12:56.962Z,999.23
2022-08-22T03:17:53.266Z,999.21
2022-08-22T03:22:52.141Z,999.17
2022-08-22T03:27:52.146Z,999.13
2022-08-22T03:32:54.065Z,999.11
2022-08-22T03:37:51.982Z,999.04
2022-08-22T03:42:51.936Z,999.04
2022-08-22T03:47:51.926Z,999.06
2022-08-22T03:52:51.860Z,998.98
2022-08-22T03:57:51.753Z,999.04
2022-08-22T04:02:51.720Z,998.97
2022-08-22T04:07:51.618Z,999.01
2022-08-22T04:12:51.633Z,999.03
2022-08-22T04:17:51.535Z,999.06
2022-08-22T04:22:51.468Z,999.02
2022-08-22T04:27:52.509Z,999.09
2022-08-22T04:32:51.373Z,999.04
2022-08-22T04:37:51.323Z,999.06
2022-08-22T04:42:51.244Z,999.10
2022-08-22T04:47:54.568Z,999.02
2022-08-22T04:52:51.129Z,999.06
2022-08-22T04:57:51.186Z,999.11
2022-08-22T05:02:51.143Z,999.12
2022-08-22T05:07:53.036Z,999.08
2022-08-22T05:12:50.906Z,999.14
2022-08-22T05:17:50.940Z,999.18
2022-08-22T05:22:50.818Z,999.21
2022-08-22T05:27:51.220Z,999.25
2022-08-22T05:32:51.704Z,999.23
2022-08-22T05:37:50.657Z,999.19
2022-08-22T05:42:50.606Z,999.19
2022-08-22T05:47:50.559Z,999.19
2022-08-22T05:52:50.505Z,999.21
2022-08-22T05:57:50.470Z,999.18
2022-08-22T06:02:53.790Z,999.12
2022-08-22T06:07:50.443Z,999.16
2022-08-22T06:12:50.366Z,999.18
2022-08-22T06:17:50.227Z,999.19
2022-08-22T06:22:50.253Z,999.28
2022-08-22T06:27:50.112Z,999.35
2022-08-22T06:32:58.938Z,999.36
2022-08-22T06:37:51.000Z,999.37
2022-08-22T06:42:49.954Z,999.38
2022-08-22T06:47:50.994Z,999.36
2022-08-22T06:52:49.841Z,999.37
2022-08-22T06:57:49.791Z,999.33
2022-08-22T07:02:49.738Z,999.33
2022-08-22T07:07:49.691Z,999.24
2022-08-22T07:12:49.649Z,999.25
2022-08-22T07:17:49.569Z,999.29
2022-08-22T07:22:49.544Z,999.31
2022-08-22T07:27:49.465Z,999.27
2022-08-22T07:32:49.511Z,999.27
2022-08-22T07:37:49.453Z,999.26
2022-08-22T07:42:49.308Z,999.27
2022-08-22T07:47:49.859Z,999.27
2022-08-22T07:52:49.299Z,999.33
2022-08-22T07:57:51.161Z,999.31
2022-08-22T08:02:49.087Z,999.27
2022-08-22T08:07:49.051Z,999.33
2022-08-22T08:12:57.965Z,999.27
2022-08-22T08:17:49.944Z,999.19
2022-08-22T08:22:48.905Z,999.19
2022-08-22T08:27:50.514Z,999.15
2022-08-22T08:32:48.783Z,998.95
2022-08-22T08:37:48.734Z,998.89
2022-08-22T08:42:48.694Z,998.87
2022-08-22T08:47:48.650Z,998.80
2022-08-22T08:52:52.560Z,998.74
2022-08-22T08:57:48.543Z,998.77
2022-08-22T09:02:48.504Z,998.75
2022-08-22T09:07:48.431Z,998.67
2022-08-22T09:13:11.462Z,998.74
2022-08-22T09:17:49.347Z,998.62
2022-08-22T09:22:50.596Z,998.56
2022-08-22T09:27:48.259Z,998.53
2022-08-22T09:32:48.289Z,998.52
2022-08-22T09:37:48.381Z,998.46
2022-08-22T09:42:48.148Z,998.35
2022-08-22T09:47:48.049Z,998.23
2022-08-22T09:52:48.024Z,998.15
2022-08-22T09:57:47.974Z,998.16
2022-08-22T10:02:50.370Z,998.18
2022-08-22T10:07:47.866Z,998.15
2022-08-22T10:12:48.819Z,998.09
2022-08-22T10:17:47.745Z,998.01
2022-08-22T10:22:47.730Z,998.04
2022-08-22T10:27:47.672Z,997.92
2022-08-22T10:32:47.629Z,997.87
2022-08-22T10:37:47.571Z,997.87
2022-08-22T10:42:47.542Z,997.85
2022-08-22T10:47:47.487Z,997.79
2022-08-22T10:52:47.450Z,997.70
2022-08-22T10:57:52.112Z,997.70
2022-08-22T11:02:48.351Z,997.55
2022-08-22T11:07:48.423Z,997.70
2022-08-22T11:12:47.269Z,997.51
2022-08-22T11:17:54.093Z,997.42
2022-08-22T11:22:48.170Z,997.65
2022-08-22T11:27:47.113Z,997.40
2022-08-22T11:32:47.060Z,997.46
2022-08-22T11:37:47.014Z,997.49
2022-08-22T11:42:47.459Z,997.44
2022-08-22T11:47:46.967Z,997.41
2022-08-22T11:52:51.797Z,997.41
2022-08-22T11:57:47.839Z,997.41
2022-08-22T13:13:31.343Z,997.09
2022-08-22T13:18:29.798Z,997.05
2022-08-22T13:23:25.592Z,997.12
2022-08-22T13:28:24.538Z,997.12
2022-08-22T13:33:24.468Z,997.12
2022-08-22T13:38:25.957Z,997.05
2022-08-22T13:43:24.371Z,997.04
2022-08-22T13:48:28.523Z,997.06
2022-08-22T13:53:24.243Z,997.00
2022-08-22T13:58:24.933Z,996.97
2022-08-22T14:03:24.176Z,997.00
2022-08-22T14:08:25.874Z,997.07
2022-08-22T14:13:24.229Z,997.07
2022-08-22T14:18:30.532Z,996.98
2022-08-22T14:23:27.184Z,997.07
2022-08-22T14:28:27.590Z,996.91
2022-08-22T14:33:23.969Z,996.87
2022-08-22T14:38:29.974Z,996.81
2022-08-22T14:43:24.846Z,996.78
2022-08-22T14:48:31.233Z,996.73
2022-08-22T14:53:25.166Z,996.63
2022-08-22T14:58:26.502Z,996.68
2022-08-22T15:03:23.609Z,996.67
2022-08-22T15:08:24.153Z,996.60
2022-08-22T15:13:25.094Z,996.63
2022-08-22T15:18:23.513Z,996.57
2022-08-22T15:23:23.449Z,996.50
2022-08-22T15:28:23.364Z,996.54
2022-08-22T15:33:23.306Z,996.45
2022-08-22T15:38:26.330Z,996.51
2022-08-22T15:43:23.192Z,996.50
2022-08-22T15:48:23.138Z,996.45
2022-08-22T15:53:23.181Z,996.40
2022-08-22T15:58:23.139Z,996.37
2022-08-22T16:03:23.007Z,996.39
2022-08-22T16:08:22.962Z,996.42
2022-08-22T16:13:22.955Z,996.47
2022-08-22T16:18:22.824Z,996.48
2022-08-22T16:23:22.780Z,996.50
2022-08-22T16:28:36.137Z,996.49
2022-08-22T16:33:23.800Z,996.48
2022-08-22T16:38:22.658Z,996.46
2022-08-22T16:43:22.527Z,996.47
2022-08-22T16:48:23.523Z,996.45
2022-08-22T16:53:22.517Z,996.50
2022-08-22T16:58:22.582Z,996.53
2022-08-22T17:03:22.330Z,996.54
2022-08-22T17:08:22.281Z,996.52
2022-08-22T17:13:22.397Z,996.46
2022-08-22T17:18:22.324Z,996.40
2022-08-22T17:23:22.140Z,996.40
2022-08-22T17:28:22.070Z,996.45
2022-08-22T17:33:24.776Z,996.39
2022-08-22T17:38:23.021Z,996.40
2022-08-22T17:43:22.032Z,996.49
2022-08-22T17:48:21.959Z,996.48
2022-08-22T17:53:21.932Z,996.48
2022-08-22T17:58:35.666Z,996.50
2022-08-22T18:03:22.712Z,996.54
2022-08-22T18:08:37.820Z,996.62
2022-08-22T18:13:22.606Z,996.60
2022-08-22T18:18:24.868Z,996.61
2022-08-22T18:23:35.594Z,996.65
2022-08-22T18:28:22.484Z,996.70
2022-08-22T18:33:21.375Z,996.74
2022-08-22T18:38:21.365Z,996.74
2022-08-22T18:43:21.397Z,996.75
2022-08-22T18:48:21.273Z,996.83
2022-08-22T18:53:21.179Z,996.84
2022-08-22T18:58:21.197Z,996.88
2022-08-22T19:03:22.139Z,996.91
2022-08-22T19:08:21.109Z,996.96
2022-08-22T19:13:21.097Z,997.08
2022-08-22T19:18:29.941Z,997.15
2022-08-22T19:23:20.960Z,997.13
2022-08-22T19:28:20.861Z,997.22
2022-08-22T19:33:34.420Z,997.19
2022-08-22T19:38:21.699Z,997.20
2022-08-22T19:43:20.773Z,997.23
2022-08-22T19:48:20.618Z,997.30
2022-08-22T19:53:20.557Z,997.29
2022-08-22T19:58:32.793Z,997.26
2022-08-22T20:03:21.652Z,997.18
2022-08-22T20:08:20.368Z,997.26
2022-08-22T20:13:20.412Z,997.26
2022-08-22T20:23:21.209Z,997.29
2022-08-22T20:28:20.150Z,997.25
2022-08-22T20:33:20.140Z,997.24
2022-08-22T20:38:20.268Z,997.27
2022-08-22T20:43:20.109Z,997.22
2022-08-22T20:48:20.001Z,997.25
2022-08-22T20:53:21.008Z,997.23
2022-08-22T20:58:19.928Z,997.12
2022-08-22T21:03:19.869Z,997.16
2022-08-22T21:08:19.822Z,997.09
2022-08-22T21:13:20.794Z,997.12
2022-08-22T21:18:20.723Z,997.13
2022-08-22T21:23:19.741Z,997.12
2022-08-22T21:28:19.668Z,997.18
2022-08-22T21:33:23.692Z,997.17
2022-08-22T21:38:19.413Z,997.17
2022-08-22T21:43:19.399Z,997.26
2022-08-22T21:48:19.294Z,997.21
2022-08-22T21:53:19.218Z,997.19
2022-08-22T21:58:35.035Z,997.22
2022-08-22T22:03:20.102Z,997.24
2022-08-22T22:08:19.056Z,997.25
2022-08-22T22:13:19.007Z,997.22
2022-08-22T22:18:19.063Z,997.17
2022-08-22T22:23:18.886Z,997.17
2022-08-22T22:28:18.833Z,997.25
2022-08-22T22:33:18.883Z,997.29
2022-08-22T22:38:23.379Z,997.27
2022-08-22T22:43:19.720Z,997.22
2022-08-22T22:48:24.428Z,997.31
2022-08-22T22:53:21.503Z,997.27
2022-08-22T22:58:19.705Z,997.35
2022-08-22T23:03:18.455Z,997.35
2022-08-22T23:08:18.464Z,997.28
2022-08-22T23:13:18.364Z,997.26
2022-08-22T23:18:18.459Z,997.25
2022-08-22T23:23:18.261Z,997.31
2022-08-22T23:28:18.175Z,997.34
2022-08-22T23:33:18.140Z,997.35
2022-08-22T23:38:18.088Z,997.34
2022-08-22T23:43:18.018Z,997.33
2022-08-22T23:48:17.957Z,997.32
2022-08-22T23:53:17.919Z,997.34
2022-08-22T23:58:17.838Z,997.33
